Time;durP1;ratioP1;P1;durP2;ratioP2;P2;SDS_P1;SDS_P2;PMS_P1;PMS_P2;Temp;Humidity;BMP_temperature;BMP_pressure;BME280_temperature;BME280_humidity;BME280_pressure;Samples;Min_cycle;Max_cycle;Signal;HPM_P1;HPM_P2
2023/01/31 00:01:56;;;;;;;12.20;2.30;;;4.90;99.90;;;;;;4927039;29;20067;-73
2023/01/31 00:04:22;;;;;;;15.93;2.92;;;4.80;99.90;;;;;;4928963;28;20094;-73
2023/01/31 00:06:50;;;;;;;18.52;2.88;;;4.80;99.90;;;;;;4943622;28;20058;-73
2023/01/31 00:09:15;;;;;;;18.50;3.15;;;4.80;99.90;;;;;;4941060;29;20048;-73
2023/01/31 00:11:41;;;;;;;21.42;3.13;;;4.80;99.90;;;;;;4944214;28;20062;-73
2023/01/31 00:14:09;;;;;;;15.50;3.00;;;4.80;99.90;;;;;;4941950;28;20133;-73
2023/01/31 00:16:35;;;;;;;16.50;2.92;;;4.80;99.90;;;;;;4942446;28;20498;-73
2023/01/31 00:19:02;;;;;;;17.27;2.92;;;4.90;99.90;;;;;;4942397;28;20050;-73
2023/01/31 00:21:29;;;;;;;14.27;2.60;;;4.80;99.90;;;;;;4927940;28;20086;-73
2023/01/31 00:23:56;;;;;;;16.30;2.58;;;4.80;99.90;;;;;;4941215;29;20036;-73
2023/01/31 00:26:32;;;;;;;15.27;2.80;;;4.80;99.90;;;;;;4944838;28;20054;-73
2023/01/31 00:29:00;;;;;;;19.83;2.60;;;4.80;99.90;;;;;;4928229;29;20066;-73
2023/01/31 00:31:28;;;;;;;11.35;2.50;;;4.80;99.90;;;;;;4927910;28;20039;-73
2023/01/31 00:33:55;;;;;;;14.02;2.40;;;4.80;99.90;;;;;;4946332;28;20043;-73
2023/01/31 00:36:27;;;;;;;14.38;3.13;;;4.80;99.90;;;;;;4945260;28;20054;-73
2023/01/31 00:38:55;;;;;;;18.00;2.95;;;4.80;99.90;;;;;;4943300;28;20051;-73
2023/01/31 00:41:22;;;;;;;14.32;2.47;;;4.80;99.90;;;;;;4940256;29;20039;-73
2023/01/31 00:43:49;;;;;;;13.13;2.53;;;4.80;99.90;;;;;;4942647;28;20051;-73
2023/01/31 00:46:15;;;;;;;15.48;2.33;;;4.70;99.90;;;;;;4950323;28;20058;-73
2023/01/31 00:48:41;;;;;;;;;;;4.70;99.90;;;;;;4940767;29;20058;-73
2023/01/31 00:51:07;;;;;;;15.48;2.38;;;4.70;99.90;;;;;;4926456;29;19922;-73
2023/01/31 00:53:33;;;;;;;14.55;2.38;;;4.70;99.90;;;;;;4944081;28;20035;-73
2023/01/31 00:56:06;;;;;;;16.58;2.50;;;4.70;99.90;;;;;;4927271;29;20043;-73
2023/01/31 00:58:32;;;;;;;11.75;2.10;;;4.70;99.90;;;;;;4941890;29;20052;-73
2023/01/31 01:01:10;;;;;;;15.48;2.35;;;4.60;99.90;;;;;;4924705;28;20063;-73
2023/01/31 01:03:36;;;;;;;13.05;2.03;;;4.60;99.90;;;;;;4924694;29;20535;-73
2023/01/31 01:06:02;;;;;;;9.25;1.70;;;4.50;99.90;;;;;;4912415;29;20048;-72
2023/01/31 01:08:29;;;;;;;12.30;2.28;;;4.50;99.90;;;;;;4925135;29;20484;-71
2023/01/31 01:10:55;;;;;;;13.52;2.10;;;4.40;99.90;;;;;;4924593;28;20085;-71
2023/01/31 01:13:21;;;;;;;10.98;2.03;;;4.30;99.90;;;;;;4909646;29;20046;-71
2023/01/31 01:15:47;;;;;;;13.35;2.15;;;4.20;99.90;;;;;;4924695;29;20047;-71
2023/01/31 01:18:12;;;;;;;11.48;2.17;;;4.20;99.90;;;;;;4929010;29;20356;-71
2023/01/31 01:20:38;;;;;;;11.32;2.10;;;4.10;99.90;;;;;;4911195;29;20066;-71
2023/01/31 01:23:04;;;;;;;11.30;2.33;;;4.10;99.90;;;;;;4926328;29;20043;-71
2023/01/31 01:25:30;;;;;;;9.75;1.50;;;4.10;99.90;;;;;;4923975;28;20386;-71
2023/01/31 01:27:55;;;;;;;8.02;1.38;;;4.00;99.90;;;;;;4910682;29;20047;-71
2023/01/31 01:30:21;;;;;;;10.38;2.13;;;4.00;99.90;;;;;;4941752;28;20079;-71
2023/01/31 01:32:47;;;;;;;14.48;2.25;;;4.00;99.90;;;;;;4924508;29;20050;-71
2023/01/31 01:35:13;;;;;;;10.55;1.50;;;4.20;99.90;;;;;;4925360;29;20154;-71
2023/01/31 01:37:39;;;;;;;7.10;1.40;;;4.20;99.90;;;;;;4922413;28;20047;-71
2023/01/31 01:40:05;;;;;;;9.65;2.00;;;4.20;99.90;;;;;;4923028;29;20052;-71
2023/01/31 01:42:34;;;;;;;13.15;2.55;;;4.30;99.90;;;;;;4923966;28;20460;-71
2023/01/31 01:45:01;;;;;;;12.13;2.60;;;4.40;99.90;;;;;;4925212;29;20479;-72
2023/01/31 01:47:46;;;;;;;14.15;2.03;;;4.40;99.90;;;;;;4910524;29;20048;-71
2023/01/31 01:50:26;;;;;;;9.52;2.08;;;4.40;99.90;;;;;;4926112;29;20128;-71
2023/01/31 01:53:20;;;;;;;11.02;1.88;;;4.40;99.90;;;;;;4911777;28;20094;-71
2023/01/31 01:55:54;;;;;;;8.77;1.75;;;4.50;99.90;;;;;;4926393;29;20041;-71
2023/01/31 01:58:46;;;;;;;16.77;2.00;;;4.50;99.90;;;;;;4929126;28;20051;-72
2023/01/31 02:01:15;;;;;;;12.50;1.95;;;4.50;99.90;;;;;;4923438;28;20047;-71
2023/01/31 02:03:43;;;;;;;8.50;2.13;;;4.60;99.90;;;;;;4927172;29;20043;-71
2023/01/31 02:06:09;;;;;;;12.15;1.90;;;4.60;99.90;;;;;;4943282;28;20039;-71
2023/01/31 02:08:36;;;;;;;9.27;1.58;;;4.60;99.90;;;;;;4927311;29;20488;-71
2023/01/31 02:11:17;;;;;;;12.30;2.13;;;4.60;99.90;;;;;;4926560;29;20035;-71
2023/01/31 02:13:46;;;;;;;10.27;1.63;;;4.70;99.90;;;;;;4923786;29;20043;-72
2023/01/31 02:16:12;;;;;;;15.40;2.13;;;4.70;99.90;;;;;;4927554;29;20488;-72
2023/01/31 02:18:38;;;;;;;10.98;1.98;;;4.70;99.90;;;;;;4924885;29;20055;-71
2023/01/31 02:21:18;;;;;;;11.65;2.15;;;4.90;99.90;;;;;;4924998;29;20039;-71
2023/01/31 02:24:03;;;;;;;10.65;2.15;;;4.90;99.90;;;;;;4924639;29;20102;-71
2023/01/31 02:27:06;;;;;;;11.93;1.80;;;5.00;99.90;;;;;;4926061;29;20417;-71
2023/01/31 02:29:46;;;;;;;11.90;1.83;;;5.00;99.90;;;;;;4927214;29;20050;-71
2023/01/31 02:32:33;;;;;;;7.85;1.60;;;5.00;99.90;;;;;;4928459;28;20078;-71
2023/01/31 02:35:20;;;;;;;8.93;1.60;;;5.10;99.90;;;;;;4928748;28;20051;-71
2023/01/31 02:38:00;;;;;;;10.55;2.28;;;5.10;99.90;;;;;;4929805;29;20063;-71
2023/01/31 02:40:34;;;;;;;11.75;2.20;;;5.20;99.90;;;;;;4928968;28;20568;-72
2023/01/31 02:43:08;;;;;;;7.93;1.70;;;5.20;99.90;;;;;;4929902;29;20047;-72
2023/01/31 02:45:42;;;;;;;8.68;1.75;;;5.30;99.90;;;;;;4925867;28;20135;-72
2023/01/31 02:48:30;;;;;;;9.82;1.60;;;5.30;99.90;;;;;;4928529;29;20542;-72
2023/01/31 02:51:18;;;;;;;8.50;1.58;;;5.30;99.90;;;;;;4929053;29;20115;-71
2023/01/31 02:54:04;;;;;;;16.65;2.10;;;5.30;99.90;;;;;;4928892;29;20130;-71
2023/01/31 02:56:33;;;;;;;7.40;1.55;;;5.20;99.90;;;;;;4927789;29;20074;-71
2023/01/31 02:59:04;;;;;;;6.85;1.42;;;5.20;99.90;;;;;;4929546;29;20186;-71
2023/01/31 03:01:36;;;;;;;5.18;1.30;;;5.10;99.90;;;;;;4943911;28;20055;-71
2023/01/31 03:04:05;;;;;;;9.20;1.33;;;5.10;99.90;;;;;;4943231;28;20129;-71
2023/01/31 03:06:34;;;;;;;11.68;1.67;;;5.10;99.90;;;;;;4942443;29;20063;-72
2023/01/31 03:09:27;;;;;;;7.40;1.50;;;5.10;99.90;;;;;;4943836;28;20384;-72
2023/01/31 03:12:05;;;;;;;10.65;2.20;;;5.10;99.90;;;;;;4942715;29;20050;-71
2023/01/31 03:14:44;;;;;;;8.02;1.40;;;5.10;99.90;;;;;;4944439;29;20395;-72
2023/01/31 03:17:31;;;;;;;9.57;1.52;;;5.10;99.90;;;;;;4942937;29;20772;-72
2023/01/31 03:20:25;;;;;;;8.03;1.50;;;5.20;99.90;;;;;;4943902;28;20047;-72
2023/01/31 03:23:00;;;;;;;8.90;1.50;;;5.20;99.90;;;;;;4941553;29;20058;-71
2023/01/31 03:25:30;;;;;;;9.15;1.80;;;5.20;99.90;;;;;;4943971;28;20505;-72
2023/01/31 03:28:00;;;;;;;8.38;1.98;;;5.30;99.90;;;;;;4944154;28;20129;-72
2023/01/31 03:30:35;;;;;;;9.32;1.85;;;5.30;99.90;;;;;;4944499;28;20035;-72
2023/01/31 03:33:15;;;;;;;8.98;1.77;;;5.30;99.90;;;;;;4944025;28;20039;-72
2023/01/31 03:35:44;;;;;;;8.57;1.70;;;5.30;99.90;;;;;;4942756;28;20378;-72
2023/01/31 03:38:24;;;;;;;8.52;1.88;;;5.40;99.90;;;;;;4943107;28;20110;-72
2023/01/31 03:41:09;;;;;;;11.98;2.00;;;5.50;99.90;;;;;;4940692;29;20061;-72
2023/01/31 03:44:00;;;;;;;10.23;1.95;;;5.50;99.90;;;;;;4942560;29;20062;-72
2023/01/31 03:46:44;;;;;;;16.30;2.80;;;5.50;99.90;;;;;;4926830;29;20399;-72
2023/01/31 03:49:13;;;;;;;8.45;2.13;;;5.60;99.90;;;;;;4941716;28;20050;-72
2023/01/31 03:51:48;;;;;;;7.70;1.73;;;5.60;99.90;;;;;;4946452;28;20466;-72
2023/01/31 03:54:29;;;;;;;15.52;1.83;;;5.60;99.90;;;;;;4942576;28;20035;-72
2023/01/31 03:57:10;;;;;;;11.57;1.85;;;5.70;99.90;;;;;;4941593;29;20559;-72
2023/01/31 03:59:38;;;;;;;8.95;1.88;;;5.80;99.90;;;;;;4941664;28;20097;-72
2023/01/31 04:02:09;;;;;;;12.27;2.17;;;5.80;99.90;;;;;;4944096;28;20340;-72
2023/01/31 04:04:44;;;;;;;12.25;2.42;;;5.90;99.90;;;;;;4931289;28;20039;-72
2023/01/31 04:07:10;;;;;;;9.93;1.83;;;5.90;99.90;;;;;;4943260;28;20047;-72
2023/01/31 04:09:37;;;;;;;14.18;2.35;;;5.90;99.90;;;;;;4940611;28;20058;-72
2023/01/31 04:12:04;;;;;;;14.70;2.80;;;6.00;99.90;;;;;;4944183;28;20047;-72
2023/01/31 04:14:29;;;;;;;;;;;6.00;99.90;;;;;;4942047;28;20043;-71
2023/01/31 04:16:55;;;;;;;17.65;2.65;;;6.00;99.90;;;;;;4942850;29;19919;-72
2023/01/31 04:19:21;;;;;;;14.25;2.03;;;6.00;99.90;;;;;;4929371;29;20047;-72
2023/01/31 04:21:46;;;;;;;12.68;2.00;;;6.00;99.90;;;;;;4950523;28;20402;-72
2023/01/31 04:24:12;;;;;;;8.23;1.73;;;6.00;99.90;;;;;;4929297;29;20047;-72
2023/01/31 04:26:38;;;;;;;14.07;2.75;;;6.00;99.90;;;;;;4944155;28;20053;-72
2023/01/31 04:29:04;;;;;;;13.48;2.95;;;6.20;99.90;;;;;;4942706;28;20055;-72
2023/01/31 04:31:30;;;;;;;18.00;2.92;;;6.20;99.90;;;;;;4941092;28;20035;-72
2023/01/31 04:33:56;;;;;;;13.48;2.67;;;6.20;99.90;;;;;;4942273;28;20039;-72
2023/01/31 04:36:25;;;;;;;;;;;6.30;99.90;;;;;;4945657;28;20083;-72
2023/01/31 04:38:51;;;;;;;15.63;2.30;;;6.30;99.90;;;;;;4941285;28;19930;-72
2023/01/31 04:41:17;;;;;;;18.65;2.65;;;6.30;99.90;;;;;;4942695;28;20047;-71
2023/01/31 04:43:43;;;;;;;16.63;3.03;;;6.40;99.90;;;;;;4925646;29;20143;-72
2023/01/31 04:46:08;;;;;;;13.63;2.63;;;6.40;99.90;;;;;;4945864;28;20043;-72
2023/01/31 04:48:34;;;;;;;14.32;3.28;;;6.50;99.90;;;;;;4942562;28;20055;-72
2023/01/31 04:51:00;;;;;;;14.80;3.17;;;6.70;99.90;;;;;;4943754;28;20095;-71
2023/01/31 04:53:26;;;;;;;14.75;2.78;;;6.80;99.90;;;;;;4927838;29;20177;-72
2023/01/31 04:55:55;;;;;;;17.27;3.17;;;6.80;99.90;;;;;;4943667;28;20077;-72
2023/01/31 04:58:21;;;;;;;15.32;3.08;;;6.90;99.90;;;;;;4942284;28;20054;-72
2023/01/31 05:00:47;;;;;;;18.75;3.60;;;6.90;99.90;;;;;;4908509;29;20079;-72
2023/01/31 05:03:13;;;;;;;20.45;3.58;;;7.00;99.90;;;;;;4923039;29;20130;-72
2023/01/31 05:05:39;;;;;;;23.17;3.75;;;7.00;99.90;;;;;;4924069;29;20052;-72
2023/01/31 05:08:05;;;;;;;25.15;4.30;;;7.10;99.90;;;;;;4924652;29;20043;-72
2023/01/31 05:10:31;;;;;;;24.35;3.78;;;7.10;99.90;;;;;;4926552;29;20031;-72
2023/01/31 05:12:56;;;;;;;;;;;7.10;99.90;;;;;;4923334;29;20094;-72
2023/01/31 05:15:22;;;;;;;18.48;3.42;;;7.10;99.90;;;;;;4925636;29;19991;-72
2023/01/31 05:17:52;;;;;;;14.55;3.55;;;7.10;99.90;;;;;;4923671;29;20051;-72
2023/01/31 05:20:18;;;;;;;13.63;3.17;;;7.10;99.90;;;;;;4924015;29;20099;-72
2023/01/31 05:22:48;;;;;;;25.90;3.78;;;7.10;99.90;;;;;;4926530;29;20035;-72
2023/01/31 05:25:14;;;;;;;15.88;3.15;;;7.10;99.90;;;;;;4912084;28;20047;-72
2023/01/31 05:27:40;;;;;;;;;;;7.10;99.90;;;;;;4914477;29;20051;-72
2023/01/31 05:30:06;;;;;;;18.50;3.58;;;7.10;99.90;;;;;;4927726;29;20011;-72
2023/01/31 05:32:32;;;;;;;;;;;7.10;99.90;;;;;;4927917;29;20042;-72
2023/01/31 05:34:57;;;;;;;17.13;3.03;;;7.00;99.90;;;;;;4927769;28;19922;-72
2023/01/31 05:37:23;;;;;;;18.92;3.78;;;7.00;99.90;;;;;;4930620;28;20050;-72
2023/01/31 05:39:49;;;;;;;19.65;3.70;;;7.10;99.90;;;;;;4924143;29;20055;-72
2023/01/31 05:42:15;;;;;;;21.08;3.80;;;7.10;99.90;;;;;;4925348;29;20047;-72
2023/01/31 05:44:41;;;;;;;15.82;4.05;;;7.10;99.90;;;;;;4926101;29;20053;-72
2023/01/31 05:47:06;;;;;;;21.63;4.03;;;7.10;99.90;;;;;;4940493;28;20047;-72
2023/01/31 05:49:33;;;;;;;17.38;4.25;;;7.10;99.90;;;;;;4928388;29;20138;-72
2023/01/31 05:51:59;;;;;;;20.95;4.25;;;7.10;99.90;;;;;;4926167;29;20043;-72
2023/01/31 05:54:25;;;;;;;15.80;3.17;;;7.10;99.90;;;;;;4928839;28;20077;-72
2023/01/31 05:56:50;;;;;;;21.38;3.70;;;7.00;99.90;;;;;;4924000;29;20471;-72
2023/01/31 05:59:16;;;;;;;20.27;4.00;;;7.00;99.90;;;;;;4930269;28;20047;-72
2023/01/31 06:01:42;;;;;;;23.63;3.78;;;7.10;99.90;;;;;;4924987;29;20053;-73
2023/01/31 06:04:09;;;;;;;21.67;3.35;;;7.00;99.90;;;;;;4925711;29;20047;-73
2023/01/31 06:06:34;;;;;;;18.67;4.28;;;7.00;99.90;;;;;;4940304;28;20491;-72
2023/01/31 06:09:00;;;;;;;18.75;3.55;;;7.00;99.90;;;;;;4937991;28;20053;-72
2023/01/31 06:11:26;;;;;;;20.48;3.55;;;7.00;99.90;;;;;;4941664;29;20407;-72
2023/01/31 06:13:53;;;;;;;15.38;3.40;;;7.00;99.90;;;;;;4925856;29;20134;-72
2023/01/31 06:16:19;;;;;;;13.35;2.90;;;7.00;99.90;;;;;;4944251;29;20062;-72
2023/01/31 06:18:44;;;;;;;26.02;4.57;;;7.00;99.90;;;;;;4941518;29;20043;-73
2023/01/31 06:21:10;;;;;;;21.90;4.65;;;7.00;99.90;;;;;;4943364;28;20047;-72
2023/01/31 06:23:36;;;;;;;19.10;3.58;;;7.00;99.90;;;;;;4927819;29;20059;-73
2023/01/31 06:26:02;;;;;;;18.02;3.35;;;7.00;99.90;;;;;;4926623;29;20395;-73
2023/01/31 06:28:28;;;;;;;21.10;4.50;;;7.00;99.90;;;;;;4942497;28;20043;-73
2023/01/31 06:30:54;;;;;;;20.55;3.80;;;7.00;99.90;;;;;;4939772;28;20110;-73
2023/01/31 06:33:19;;;;;;;20.90;4.22;;;7.00;99.90;;;;;;4927704;29;20052;-73
2023/01/31 06:35:45;;;;;;;19.88;3.83;;;7.10;99.90;;;;;;4942275;28;20051;-73
2023/01/31 06:38:15;;;;;;;18.08;4.13;;;7.10;99.90;;;;;;4946200;28;20043;-73
2023/01/31 06:40:40;;;;;;;19.05;3.95;;;7.00;99.90;;;;;;4937728;29;20101;-73
2023/01/31 06:43:06;;;;;;;14.35;3.38;;;7.00;99.90;;;;;;4938827;29;20102;-73
2023/01/31 06:45:32;;;;;;;17.88;3.55;;;7.00;99.90;;;;;;4925522;29;20143;-73
2023/01/31 06:47:57;;;;;;;26.23;4.18;;;7.00;99.90;;;;;;4941613;29;20090;-73
2023/01/31 06:50:23;;;;;;;20.50;4.00;;;7.00;99.90;;;;;;4923224;29;20046;-74
2023/01/31 06:52:49;;;;;;;18.95;3.78;;;7.00;99.90;;;;;;4942311;29;20075;-73
2023/01/31 06:55:14;;;;;;;19.90;3.95;;;7.00;99.90;;;;;;4926173;29;20053;-73
2023/01/31 06:57:48;;;;;;;19.88;3.38;;;7.00;99.90;;;;;;4946159;28;20082;-73
2023/01/31 07:00:14;;;;;;;18.17;3.50;;;7.00;99.90;;;;;;4940729;29;20043;-73
2023/01/31 07:02:41;;;;;;;;;;;7.00;99.90;;;;;;4942828;29;20143;-73
2023/01/31 07:05:07;;;;;;;17.63;3.72;;;7.00;99.90;;;;;;4934214;29;19926;-73
2023/01/31 07:07:32;;;;;;;19.02;3.40;;;7.00;99.90;;;;;;4937498;28;20051;-73
2023/01/31 07:09:58;;;;;;;16.48;3.15;;;7.10;99.90;;;;;;4940447;28;20047;-73
2023/01/31 07:12:24;;;;;;;20.17;3.05;;;7.10;99.90;;;;;;4937918;29;20390;-73
2023/01/31 07:14:49;;;;;;;18.83;3.50;;;7.00;99.90;;;;;;4940900;29;20068;-73
2023/01/31 07:17:15;;;;;;;13.93;2.95;;;7.00;99.90;;;;;;4922193;29;20044;-73
2023/01/31 07:19:41;;;;;;;18.98;3.22;;;7.10;99.90;;;;;;4924964;29;20138;-71
2023/01/31 07:22:06;;;;;;;20.85;3.47;;;7.10;99.90;;;;;;4925905;29;20419;-71
2023/01/31 07:24:32;;;;;;;22.25;4.13;;;7.10;99.90;;;;;;4942088;29;20384;-71
2023/01/31 07:26:59;;;;;;;13.60;3.03;;;7.10;99.90;;;;;;4927355;29;20122;-71
2023/01/31 07:29:25;;;;;;;14.10;2.88;;;7.20;99.90;;;;;;4943982;29;20059;-71
2023/01/31 07:31:50;;;;;;;15.00;3.22;;;7.10;99.90;;;;;;4925837;29;20337;-71
2023/01/31 07:34:17;;;;;;;16.40;3.65;;;7.10;99.90;;;;;;4941234;29;20094;-71
2023/01/31 07:36:43;;;;;;;13.80;3.17;;;7.20;99.90;;;;;;4926939;29;20055;-71
2023/01/31 07:39:09;;;;;;;19.50;4.10;;;7.20;99.90;;;;;;4942404;29;20110;-71
2023/01/31 07:41:34;;;;;;;15.52;3.08;;;7.20;99.90;;;;;;4925584;29;20047;-70
2023/01/31 07:44:00;;;;;;;20.17;3.90;;;7.20;99.90;;;;;;4944862;29;20039;-70
2023/01/31 07:46:26;;;;;;;18.95;3.40;;;7.20;99.90;;;;;;4941992;29;20075;-71
2023/01/31 07:48:51;;;;;;;13.80;3.25;;;7.20;99.90;;;;;;4942280;29;20063;-71
2023/01/31 07:51:17;;;;;;;18.10;3.42;;;7.20;99.90;;;;;;4944169;29;20039;-70
2023/01/31 07:53:43;;;;;;;12.60;2.90;;;7.30;99.90;;;;;;4939058;28;20040;-70
2023/01/31 07:56:12;;;;;;;15.68;2.95;;;7.20;99.90;;;;;;4929963;29;20039;-70
2023/01/31 07:58:40;;;;;;;15.15;3.10;;;7.30;99.90;;;;;;4944232;28;20062;-70
2023/01/31 08:03:51;;;;;;;17.42;3.63;;;7.30;99.90;;;;;;4929959;29;20114;-71
2023/01/31 08:06:17;;;;;;;15.25;2.70;;;7.30;99.90;;;;;;4916520;29;20039;-70
2023/01/31 08:08:44;;;;;;;15.48;2.83;;;7.30;99.90;;;;;;4919430;29;20055;-70
2023/01/31 08:11:10;;;;;;;10.48;2.35;;;7.30;99.90;;;;;;4921659;29;20048;-70
2023/01/31 08:13:37;;;;;;;16.52;3.20;;;7.30;99.90;;;;;;4927333;29;20044;-70
2023/01/31 08:16:05;;;;;;;16.55;2.78;;;7.30;99.90;;;;;;4936858;29;20047;-70
2023/01/31 08:18:31;;;;;;;16.25;2.38;;;7.40;99.90;;;;;;4936772;29;20416;-70
2023/01/31 08:20:57;;;;;;;11.95;2.47;;;7.40;99.90;;;;;;4934547;29;20098;-70
2023/01/31 08:23:23;;;;;;;13.18;2.90;;;7.40;99.90;;;;;;4935257;29;20043;-70
2023/01/31 08:25:49;;;;;;;17.90;2.38;;;7.40;99.90;;;;;;4936499;29;20043;-71
2023/01/31 08:28:15;;;;;;;14.50;2.85;;;7.40;99.90;;;;;;4953363;29;20145;-71
2023/01/31 08:30:42;;;;;;;14.38;2.38;;;7.40;99.90;;;;;;4935486;29;20043;-72
2023/01/31 08:33:10;;;;;;;11.13;2.15;;;7.40;99.90;;;;;;4917395;29;20403;-71
2023/01/31 08:35:36;;;;;;;14.48;2.63;;;7.40;99.90;;;;;;4919435;28;20047;-72
2023/01/31 08:38:03;;;;;;;14.93;2.40;;;7.50;99.90;;;;;;4932259;29;20079;-72
2023/01/31 08:40:29;;;;;;;11.48;2.50;;;7.50;99.90;;;;;;4929482;29;20479;-72
2023/01/31 08:43:02;;;;;;;13.65;2.88;;;7.50;99.90;;;;;;4935310;29;20570;-71
2023/01/31 08:45:29;;;;;;;10.40;2.30;;;7.50;99.90;;;;;;4939700;28;20097;-72
2023/01/31 08:47:56;;;;;;;17.13;2.95;;;7.50;99.90;;;;;;4929844;29;20546;-71
2023/01/31 08:50:23;;;;;;;16.85;2.78;;;7.60;99.90;;;;;;4935229;29;20039;-72
2023/01/31 08:53:00;;;;;;;17.08;2.88;;;7.60;99.90;;;;;;4931339;29;20039;-71
2023/01/31 08:55:28;;;;;;;20.23;3.15;;;7.60;99.90;;;;;;4931626;29;20043;-71
2023/01/31 08:57:54;;;;;;;12.23;2.72;;;7.70;99.90;;;;;;4919262;29;20758;-72
2023/01/31 09:00:20;;;;;;;15.20;3.10;;;7.70;99.90;;;;;;4946509;29;20063;-71
2023/01/31 09:02:53;;;;;;;;;;;7.70;99.90;;;;;;4940472;29;20478;-71
2023/01/31 09:05:19;;;;;;;17.15;3.10;;;7.70;99.90;;;;;;4940951;29;19918;-73
2023/01/31 09:07:44;;;;;;;11.88;2.50;;;7.80;99.90;;;;;;4942508;29;20476;-72
2023/01/31 09:10:11;;;;;;;14.95;2.85;;;7.70;99.90;;;;;;4950366;29;20081;-73
2023/01/31 09:12:36;;;;;;;14.95;3.35;;;7.80;99.90;;;;;;4937520;29;20062;-72
2023/01/31 09:15:03;;;;;;;14.05;2.60;;;7.70;99.90;;;;;;4951310;29;20482;-73
2023/01/31 09:17:29;;;;;;;17.20;3.63;;;7.80;99.90;;;;;;4945123;29;20046;-73
2023/01/31 09:19:55;;;;;;;15.07;2.95;;;7.80;99.90;;;;;;4943328;29;20065;-72
2023/01/31 09:22:21;;;;;;;17.05;2.95;;;7.80;99.90;;;;;;4950035;29;20031;-73
2023/01/31 09:24:47;;;;;;;17.42;3.05;;;7.80;99.90;;;;;;4934246;29;20044;-73
2023/01/31 09:27:13;;;;;;;13.30;2.53;;;7.80;99.90;;;;;;4930974;29;20051;-72
2023/01/31 09:29:39;;;;;;;16.63;2.65;;;7.80;99.90;;;;;;4930647;29;20126;-72
2023/01/31 09:32:05;;;;;;;14.07;2.95;;;7.90;99.90;;;;;;4951986;29;20503;-72
2023/01/31 09:34:31;;;;;;;11.75;2.72;;;7.80;99.90;;;;;;4934300;29;20569;-73
2023/01/31 09:36:57;;;;;;;9.82;2.40;;;7.90;99.90;;;;;;4942791;28;20066;-73
2023/01/31 09:39:23;;;;;;;17.30;2.83;;;7.90;99.90;;;;;;4945809;29;20047;-72
2023/01/31 09:41:52;;;;;;;;;;;7.90;99.90;;;;;;4936433;29;20059;-73
2023/01/31 09:44:31;;;;;;;14.45;3.03;;;7.90;99.90;;;;;;4934404;29;20054;-72
2023/01/31 09:47:23;;;;;;;16.55;2.78;;;7.90;99.90;;;;;;4945485;29;20459;-72
2023/01/31 09:49:57;;;;;;;16.50;2.95;;;7.90;99.90;;;;;;4950787;29;20047;-72
2023/01/31 09:52:25;;;;;;;15.52;3.03;;;7.90;99.90;;;;;;4940211;29;20046;-72
2023/01/31 09:54:51;;;;;;;16.02;3.08;;;7.90;99.90;;;;;;4951260;29;20043;-72
2023/01/31 09:57:41;;;;;;;14.02;3.35;;;7.90;99.90;;;;;;4933622;29;20550;-71
2023/01/31 10:00:24;;;;;;;13.07;2.63;;;8.00;99.90;;;;;;4946926;29;20051;-72
2023/01/31 10:02:58;;;;;;;14.60;3.13;;;8.00;99.90;;;;;;4950864;29;20075;-72
2023/01/31 10:05:30;;;;;;;23.52;3.80;;;8.00;99.90;;;;;;4944807;29;20086;-71
2023/01/31 10:08:10;;;;;;;12.60;2.80;;;8.00;99.90;;;;;;4921007;29;20055;-73
2023/01/31 10:10:47;;;;;;;21.23;3.15;;;8.10;99.90;;;;;;4936355;29;20098;-72
2023/01/31 10:13:35;;;;;;;15.55;2.83;;;8.10;99.90;;;;;;4931567;29;20081;-72
2023/01/31 10:16:36;;;;;;;13.43;2.90;;;8.10;99.90;;;;;;4932051;29;20063;-72
2023/01/31 10:19:14;;;;;;;14.20;2.75;;;8.10;99.90;;;;;;4948267;29;20529;-72
2023/01/31 10:22:14;;;;;;;14.35;3.08;;;8.20;99.90;;;;;;4944635;29;20059;-72
2023/01/31 10:25:02;;;;;;;14.82;2.95;;;8.10;99.90;;;;;;4928625;29;20138;-72
2023/01/31 10:27:41;;;;;;;15.95;3.22;;;8.10;99.90;;;;;;4941140;29;20483;-72
2023/01/31 10:30:16;;;;;;;11.15;2.53;;;8.10;99.90;;;;;;4922975;29;20049;-72
2023/01/31 10:32:47;;;;;;;12.93;2.83;;;8.20;99.90;;;;;;4946399;29;20487;-72
2023/01/31 10:35:35;;;;;;;13.50;2.95;;;8.20;99.90;;;;;;4941780;28;20382;-72
2023/01/31 10:38:13;;;;;;;16.73;2.55;;;8.20;99.90;;;;;;4949406;29;20062;-72
2023/01/31 10:40:43;;;;;;;17.30;3.10;;;8.30;99.90;;;;;;4948067;29;20050;-72
2023/01/31 10:43:42;;;;;;;10.27;2.30;;;8.30;99.90;;;;;;4943538;28;20430;-72
2023/01/31 10:46:10;;;;;;;12.88;2.40;;;8.40;99.90;;;;;;4950528;28;20039;-72
2023/01/31 10:48:36;;;;;;;17.02;3.15;;;8.50;99.90;;;;;;4951482;28;20138;-72
2023/01/31 10:51:12;;;;;;;12.52;2.97;;;8.50;99.90;;;;;;4949966;29;20047;-72
2023/01/31 10:54:11;;;;;;;10.73;2.55;;;8.50;99.90;;;;;;4951369;28;20047;-72
2023/01/31 10:56:45;;;;;;;11.85;2.67;;;8.60;99.90;;;;;;4940891;29;20053;-73
2023/01/31 10:59:24;;;;;;;11.70;2.33;;;8.80;99.90;;;;;;4954668;28;20414;-72
2023/01/31 11:01:50;;;;;;;21.70;3.45;;;8.80;99.90;;;;;;4932635;29;20066;-72
2023/01/31 11:04:39;;;;;;;16.35;3.15;;;8.80;99.90;;;;;;4921834;29;20047;-72
2023/01/31 11:07:06;;;;;;;15.05;2.92;;;8.90;99.90;;;;;;4928767;29;20055;-72
2023/01/31 11:09:36;;;;;;;15.43;3.05;;;8.90;99.90;;;;;;4937188;29;20434;-72
2023/01/31 11:12:04;;;;;;;18.33;3.00;;;9.10;99.90;;;;;;4927870;28;20059;-72
2023/01/31 11:14:30;;;;;;;17.58;3.10;;;9.00;99.90;;;;;;4942281;29;20572;-73
2023/01/31 11:17:19;;;;;;;16.67;3.08;;;9.10;99.90;;;;;;4926490;29;20634;-73
2023/01/31 11:19:54;;;;;;;13.60;2.42;;;9.00;99.90;;;;;;4932641;29;20051;-74
2023/01/31 11:22:24;;;;;;;16.02;3.33;;;9.30;99.90;;;;;;4931881;29;20058;-73
2023/01/31 11:24:51;;;;;;;12.55;2.55;;;9.20;99.90;;;;;;4906299;29;20055;-73
2023/01/31 11:27:42;;;;;;;12.68;2.45;;;9.50;99.90;;;;;;4930624;29;20051;-73
2023/01/31 11:30:21;;;;;;;16.40;2.33;;;9.50;99.90;;;;;;4920897;29;21712;-73
2023/01/31 11:32:48;;;;;;;15.15;3.67;;;9.20;99.90;;;;;;4918488;29;20122;-73
2023/01/31 11:35:13;;;;;;;12.43;2.42;;;9.60;99.90;;;;;;4936440;29;20042;-73
2023/01/31 11:37:54;;;;;;;16.42;2.88;;;9.30;99.90;;;;;;4937133;29;20478;-73
2023/01/31 11:40:31;;;;;;;15.95;3.42;;;9.50;99.90;;;;;;4933707;29;20133;-73
2023/01/31 11:43:04;;;;;;;14.50;2.67;;;9.70;99.90;;;;;;4913709;29;20193;-73
2023/01/31 11:45:33;;;;;;;14.88;3.08;;;9.80;99.90;;;;;;4912294;29;20135;-74
2023/01/31 11:48:10;;;;;;;18.88;3.38;;;9.40;99.90;;;;;;4921711;29;20480;-73
2023/01/31 11:50:44;;;;;;;14.32;2.75;;;9.80;99.90;;;;;;4914299;29;20098;-74
2023/01/31 11:53:31;;;;;;;15.57;2.88;;;9.50;99.90;;;;;;4907821;29;20050;-74
2023/01/31 11:56:18;;;;;;;12.38;2.60;;;9.50;99.90;;;;;;4918327;29;20503;-74
2023/01/31 11:58:48;;;;;;;15.60;2.78;;;9.70;99.90;;;;;;4915274;29;20153;-74
2023/01/31 12:01:20;;;;;;;16.15;3.20;;;10.10;99.90;;;;;;4925338;29;20167;-74
2023/01/31 12:03:55;;;;;;;19.38;3.40;;;10.00;99.90;;;;;;4939554;29;20151;-74
2023/01/31 12:06:36;;;;;;;16.15;2.95;;;10.10;99.90;;;;;;4943363;28;20047;-74
2023/01/31 12:09:20;;;;;;;14.50;2.50;;;9.80;99.90;;;;;;4939960;29;20039;-74
2023/01/31 12:11:53;;;;;;;21.75;3.85;;;9.90;99.90;;;;;;4938988;29;20114;-74
2023/01/31 12:14:19;;;;;;;17.92;4.10;;;10.10;99.90;;;;;;4934911;29;20048;-74
2023/01/31 12:16:47;;;;;;;18.40;3.42;;;10.30;99.90;;;;;;4946664;29;20105;-74
2023/01/31 12:19:13;;;;;;;16.85;3.03;;;10.00;99.90;;;;;;4937089;29;20047;-73
2023/01/31 12:21:51;;;;;;;14.80;2.85;;;10.20;99.90;;;;;;4951303;29;20066;-74
2023/01/31 12:24:31;;;;;;;18.50;2.90;;;10.10;99.90;;;;;;4942362;29;20051;-73
2023/01/31 12:27:14;;;;;;;17.58;2.97;;;10.30;99.90;;;;;;4940685;29;20130;-73
2023/01/31 12:30:01;;;;;;;11.27;2.80;;;10.10;99.90;;;;;;4947486;29;20054;-73
2023/01/31 12:32:45;;;;;;;11.85;3.28;;;10.30;99.90;;;;;;4944825;29;20043;-73
2023/01/31 12:35:14;;;;;;;16.85;3.00;;;10.30;99.90;;;;;;4944630;28;20514;-73
2023/01/31 12:38:05;;;;;;;19.42;2.78;;;10.10;99.90;;;;;;4954192;28;20050;-73
2023/01/31 12:41:08;;;;;;;16.65;2.95;;;10.20;99.90;;;;;;4922687;29;20043;-73
2023/01/31 12:43:39;;;;;;;13.82;2.70;;;10.20;99.90;;;;;;4959889;28;20394;-73
2023/01/31 12:46:10;;;;;;;15.98;2.70;;;10.20;99.90;;;;;;4948922;28;20047;-73
2023/01/31 12:49:00;;;;;;;12.38;2.67;;;10.10;99.90;;;;;;4946341;29;20126;-73
2023/01/31 12:52:01;;;;;;;14.88;2.95;;;10.10;99.90;;;;;;4943913;29;20380;-74
2023/01/31 12:54:47;;;;;;;18.67;2.92;;;9.90;99.90;;;;;;4938799;29;20048;-73
2023/01/31 12:57:36;;;;;;;12.70;3.08;;;9.80;99.90;;;;;;4944827;29;20121;-72
2023/01/31 13:00:25;;;;;;;12.07;2.53;;;9.80;99.90;;;;;;4943878;28;20066;-72
2023/01/31 13:02:54;;;;;;;14.18;2.60;;;9.70;99.90;;;;;;4964094;28;20122;-74
2023/01/31 13:05:28;;;;;;;16.52;2.83;;;9.70;99.90;;;;;;4936582;29;20493;-74
2023/01/31 13:08:06;;;;;;;15.65;3.00;;;9.70;99.90;;;;;;4934946;29;20486;-74
2023/01/31 13:10:44;;;;;;;13.13;2.80;;;9.80;99.90;;;;;;4957580;28;20099;-74
2023/01/31 13:13:18;;;;;;;16.13;2.85;;;9.70;99.90;;;;;;4949208;29;20114;-74
2023/01/31 13:15:47;;;;;;;13.82;2.70;;;9.70;99.90;;;;;;4940019;29;20074;-73